sensor_id;sensor_type;location;lat;lon;timestamp;P1;durP1;ratioP1;P2;durP2;ratioP2
22687;SDS011;11511;51.514;7.080;2023-09-19T00:00:00;8.35;;;3.22;;
22687;SDS011;11511;51.514;7.080;2023-09-19T00:02:26;12.27;;;3.38;;
22687;SDS011;11511;51.514;7.080;2023-09-19T00:04:51;12.88;;;2.47;;
22687;SDS011;11511;51.514;7.080;2023-09-19T00:07:17;12.75;;;3.05;;
22687;SDS011;11511;51.514;7.080;2023-09-19T00:09:42;10.45;;;3.00;;
22687;SDS011;11511;51.514;7.080;2023-09-19T00:12:09;15.40;;;3.65;;
22687;SDS011;11511;51.514;7.080;2023-09-19T00:14:34;8.95;;;2.60;;
22687;SDS011;11511;51.514;7.080;2023-09-19T00:17:01;13.50;;;3.20;;
22687;SDS011;11511;51.514;7.080;2023-09-19T00:19:32;11.07;;;2.80;;
22687;SDS011;11511;51.514;7.080;2023-09-19T00:21:57;7.85;;;2.67;;
22687;SDS011;11511;51.514;7.080;2023-09-19T00:24:23;11.95;;;2.95;;
22687;SDS011;11511;51.514;7.080;2023-09-19T00:26:48;11.23;;;2.83;;
22687;SDS011;11511;51.514;7.080;2023-09-19T00:29:14;13.80;;;2.88;;
22687;SDS011;11511;51.514;7.080;2023-09-19T00:31:43;10.95;;;2.72;;
22687;SDS011;11511;51.514;7.080;2023-09-19T00:34:08;11.63;;;2.60;;
22687;SDS011;11511;51.514;7.080;2023-09-19T00:36:35;9.30;;;2.70;;
22687;SDS011;11511;51.514;7.080;2023-09-19T00:39:03;11.27;;;2.97;;
22687;SDS011;11511;51.514;7.080;2023-09-19T00:41:30;15.15;;;3.22;;
22687;SDS011;11511;51.514;7.080;2023-09-19T00:43:55;10.95;;;2.78;;
22687;SDS011;11511;51.514;7.080;2023-09-19T00:46:21;11.52;;;2.30;;
22687;SDS011;11511;51.514;7.080;2023-09-19T00:48:46;9.80;;;2.53;;
22687;SDS011;11511;51.514;7.080;2023-09-19T00:51:12;13.65;;;2.72;;
22687;SDS011;11511;51.514;7.080;2023-09-19T00:53:39;10.55;;;2.63;;
22687;SDS011;11511;51.514;7.080;2023-09-19T00:56:04;12.90;;;2.85;;
22687;SDS011;11511;51.514;7.080;2023-09-19T00:58:31;14.23;;;2.75;;
22687;SDS011;11511;51.514;7.080;2023-09-19T01:00:58;16.23;;;2.55;;
22687;SDS011;11511;51.514;7.080;2023-09-19T01:03:24;11.05;;;2.50;;
22687;SDS011;11511;51.514;7.080;2023-09-19T01:05:49;11.15;;;2.90;;
22687;SDS011;11511;51.514;7.080;2023-09-19T01:08:15;16.38;;;2.90;;
22687;SDS011;11511;51.514;7.080;2023-09-19T01:10:44;12.45;;;2.65;;
22687;SDS011;11511;51.514;7.080;2023-09-19T01:13:26;10.65;;;2.67;;
22687;SDS011;11511;51.514;7.080;2023-09-19T01:18:35;14.05;;;2.65;;
22687;SDS011;11511;51.514;7.080;2023-09-19T01:21:27;9.07;;;2.42;;
22687;SDS011;11511;51.514;7.080;2023-09-19T01:30:07;12.48;;;2.63;;
22687;SDS011;11511;51.514;7.080;2023-09-19T01:32:54;13.45;;;2.50;;
22687;SDS011;11511;51.514;7.080;2023-09-19T01:35:20;12.40;;;2.60;;
22687;SDS011;11511;51.514;7.080;2023-09-19T01:37:45;12.73;;;2.58;;
22687;SDS011;11511;51.514;7.080;2023-09-19T01:40:12;10.65;;;2.65;;
22687;SDS011;11511;51.514;7.080;2023-09-19T01:45:42;10.18;;;2.42;;
22687;SDS011;11511;51.514;7.080;2023-09-19T01:51:05;15.98;;;3.05;;
22687;SDS011;11511;51.514;7.080;2023-09-19T01:57:03;10.63;;;2.70;;
22687;SDS011;11511;51.514;7.080;2023-09-19T01:59:59;14.48;;;2.72;;
22687;SDS011;11511;51.514;7.080;2023-09-19T02:02:34;13.45;;;2.80;;
22687;SDS011;11511;51.514;7.080;2023-09-19T02:05:01;11.45;;;3.25;;
22687;SDS011;11511;51.514;7.080;2023-09-19T02:07:28;9.70;;;2.70;;
22687;SDS011;11511;51.514;7.080;2023-09-19T02:09:56;12.98;;;2.67;;
22687;SDS011;11511;51.514;7.080;2023-09-19T02:12:21;12.18;;;2.95;;
22687;SDS011;11511;51.514;7.080;2023-09-19T02:14:47;14.25;;;2.90;;
22687;SDS011;11511;51.514;7.080;2023-09-19T02:17:12;15.55;;;2.80;;
22687;SDS011;11511;51.514;7.080;2023-09-19T02:19:38;10.77;;;2.78;;
22687;SDS011;11511;51.514;7.080;2023-09-19T02:22:04;14.82;;;3.03;;
22687;SDS011;11511;51.514;7.080;2023-09-19T02:24:34;11.80;;;2.70;;
22687;SDS011;11511;51.514;7.080;2023-09-19T02:27:00;12.88;;;2.90;;
22687;SDS011;11511;51.514;7.080;2023-09-19T02:29:29;15.43;;;2.53;;
22687;SDS011;11511;51.514;7.080;2023-09-19T02:31:55;10.80;;;2.33;;
22687;SDS011;11511;51.514;7.080;2023-09-19T02:34:21;11.55;;;2.85;;
22687;SDS011;11511;51.514;7.080;2023-09-19T02:36:46;10.02;;;3.15;;
22687;SDS011;11511;51.514;7.080;2023-09-19T02:39:12;12.63;;;2.75;;
22687;SDS011;11511;51.514;7.080;2023-09-19T02:41:38;13.98;;;2.70;;
22687;SDS011;11511;51.514;7.080;2023-09-19T02:44:03;13.45;;;3.00;;
22687;SDS011;11511;51.514;7.080;2023-09-19T02:46:32;11.52;;;2.80;;
22687;SDS011;11511;51.514;7.080;2023-09-19T02:48:57;11.68;;;3.10;;
22687;SDS011;11511;51.514;7.080;2023-09-19T02:51:23;12.48;;;3.00;;
22687;SDS011;11511;51.514;7.080;2023-09-19T02:53:49;12.20;;;2.70;;
22687;SDS011;11511;51.514;7.080;2023-09-19T02:56:17;13.13;;;2.92;;
22687;SDS011;11511;51.514;7.080;2023-09-19T02:58:43;14.48;;;3.30;;
22687;SDS011;11511;51.514;7.080;2023-09-19T03:01:12;15.40;;;3.10;;
22687;SDS011;11511;51.514;7.080;2023-09-19T03:03:37;14.27;;;3.10;;
22687;SDS011;11511;51.514;7.080;2023-09-19T03:06:04;11.80;;;2.90;;
22687;SDS011;11511;51.514;7.080;2023-09-19T03:08:30;10.43;;;2.88;;
22687;SDS011;11511;51.514;7.080;2023-09-19T03:10:56;13.90;;;2.60;;
22687;SDS011;11511;51.514;7.080;2023-09-19T03:13:21;14.23;;;3.05;;
22687;SDS011;11511;51.514;7.080;2023-09-19T03:15:47;14.48;;;2.70;;
22687;SDS011;11511;51.514;7.080;2023-09-19T03:18:15;9.20;;;2.50;;
22687;SDS011;11511;51.514;7.080;2023-09-19T03:20:41;10.80;;;2.72;;
22687;SDS011;11511;51.514;7.080;2023-09-19T03:23:06;11.60;;;2.67;;
22687;SDS011;11511;51.514;7.080;2023-09-19T03:25:36;13.52;;;2.67;;
22687;SDS011;11511;51.514;7.080;2023-09-19T03:28:02;10.43;;;2.60;;
22687;SDS011;11511;51.514;7.080;2023-09-19T03:30:30;14.70;;;3.10;;
22687;SDS011;11511;51.514;7.080;2023-09-19T03:32:56;5.75;;;2.25;;
22687;SDS011;11511;51.514;7.080;2023-09-19T03:35:21;12.23;;;2.88;;
22687;SDS011;11511;51.514;7.080;2023-09-19T03:37:47;16.05;;;2.70;;
22687;SDS011;11511;51.514;7.080;2023-09-19T03:40:12;15.32;;;3.08;;
22687;SDS011;11511;51.514;7.080;2023-09-19T03:42:41;15.57;;;2.70;;
22687;SDS011;11511;51.514;7.080;2023-09-19T03:45:07;16.00;;;2.90;;
22687;SDS011;11511;51.514;7.080;2023-09-19T03:47:37;12.80;;;3.13;;
22687;SDS011;11511;51.514;7.080;2023-09-19T03:50:03;13.07;;;3.10;;
22687;SDS011;11511;51.514;7.080;2023-09-19T03:52:28;7.85;;;2.28;;
22687;SDS011;11511;51.514;7.080;2023-09-19T03:54:54;18.13;;;2.40;;
22687;SDS011;11511;51.514;7.080;2023-09-19T03:57:19;13.23;;;2.95;;
22687;SDS011;11511;51.514;7.080;2023-09-19T03:59:46;14.48;;;2.95;;
22687;SDS011;11511;51.514;7.080;2023-09-19T04:02:12;12.07;;;2.25;;
22687;SDS011;11511;51.514;7.080;2023-09-19T04:04:47;6.25;;;2.08;;
22687;SDS011;11511;51.514;7.080;2023-09-19T04:07:15;10.30;;;2.80;;
22687;SDS011;11511;51.514;7.080;2023-09-19T04:09:41;13.57;;;2.75;;
22687;SDS011;11511;51.514;7.080;2023-09-19T04:12:07;7.38;;;2.35;;
22687;SDS011;11511;51.514;7.080;2023-09-19T04:14:34;11.55;;;2.90;;
22687;SDS011;11511;51.514;7.080;2023-09-19T04:16:59;12.45;;;2.67;;
22687;SDS011;11511;51.514;7.080;2023-09-19T04:19:25;10.60;;;2.63;;
22687;SDS011;11511;51.514;7.080;2023-09-19T04:21:50;7.68;;;2.08;;
22687;SDS011;11511;51.514;7.080;2023-09-19T04:24:16;10.93;;;2.30;;
22687;SDS011;11511;51.514;7.080;2023-09-19T04:26:44;11.88;;;2.40;;
22687;SDS011;11511;51.514;7.080;2023-09-19T04:29:10;9.77;;;2.30;;
22687;SDS011;11511;51.514;7.080;2023-09-19T04:31:36;10.70;;;2.25;;
22687;SDS011;11511;51.514;7.080;2023-09-19T04:34:03;13.05;;;2.67;;
22687;SDS011;11511;51.514;7.080;2023-09-19T04:36:28;12.48;;;2.58;;
22687;SDS011;11511;51.514;7.080;2023-09-19T04:38:54;10.63;;;2.33;;
22687;SDS011;11511;51.514;7.080;2023-09-19T04:41:20;11.85;;;2.55;;
22687;SDS011;11511;51.514;7.080;2023-09-19T04:43:45;13.07;;;2.28;;
22687;SDS011;11511;51.514;7.080;2023-09-19T04:46:10;16.40;;;2.40;;
22687;SDS011;11511;51.514;7.080;2023-09-19T04:48:39;12.18;;;2.00;;
22687;SDS011;11511;51.514;7.080;2023-09-19T04:51:05;9.05;;;2.33;;
22687;SDS011;11511;51.514;7.080;2023-09-19T04:53:30;11.00;;;2.38;;
22687;SDS011;11511;51.514;7.080;2023-09-19T04:55:55;14.18;;;2.38;;
22687;SDS011;11511;51.514;7.080;2023-09-19T04:58:22;13.32;;;2.95;;
22687;SDS011;11511;51.514;7.080;2023-09-19T05:00:47;10.23;;;2.50;;
22687;SDS011;11511;51.514;7.080;2023-09-19T05:03:13;11.90;;;2.40;;
22687;SDS011;11511;51.514;7.080;2023-09-19T05:05:38;10.75;;;2.38;;
22687;SDS011;11511;51.514;7.080;2023-09-19T05:08:06;14.23;;;2.47;;
22687;SDS011;11511;51.514;7.080;2023-09-19T05:10:33;8.55;;;2.33;;
22687;SDS011;11511;51.514;7.080;2023-09-19T05:13:00;11.57;;;2.60;;
22687;SDS011;11511;51.514;7.080;2023-09-19T05:15:26;9.07;;;2.40;;
22687;SDS011;11511;51.514;7.080;2023-09-19T05:17:51;13.45;;;2.55;;
22687;SDS011;11511;51.514;7.080;2023-09-19T05:20:19;12.98;;;2.60;;
22687;SDS011;11511;51.514;7.080;2023-09-19T05:23:12;11.35;;;2.65;;
22687;SDS011;11511;51.514;7.080;2023-09-19T05:25:38;11.55;;;2.55;;
22687;SDS011;11511;51.514;7.080;2023-09-19T05:30:31;10.65;;;2.63;;
22687;SDS011;11511;51.514;7.080;2023-09-19T05:32:57;13.48;;;2.78;;
22687;SDS011;11511;51.514;7.080;2023-09-19T05:35:23;12.13;;;2.60;;
22687;SDS011;11511;51.514;7.080;2023-09-19T05:37:53;14.38;;;2.80;;
22687;SDS011;11511;51.514;7.080;2023-09-19T05:40:21;9.00;;;2.80;;
22687;SDS011;11511;51.514;7.080;2023-09-19T05:42:47;10.05;;;2.53;;
22687;SDS011;11511;51.514;7.080;2023-09-19T05:45:12;11.32;;;2.22;;
22687;SDS011;11511;51.514;7.080;2023-09-19T05:47:42;10.80;;;2.60;;
22687;SDS011;11511;51.514;7.080;2023-09-19T05:50:10;9.80;;;2.72;;
22687;SDS011;11511;51.514;7.080;2023-09-19T05:52:37;13.10;;;2.42;;
22687;SDS011;11511;51.514;7.080;2023-09-19T05:55:06;10.32;;;2.53;;
22687;SDS011;11511;51.514;7.080;2023-09-19T05:57:35;12.80;;;2.80;;
22687;SDS011;11511;51.514;7.080;2023-09-19T06:00:04;11.63;;;2.38;;
22687;SDS011;11511;51.514;7.080;2023-09-19T06:02:34;13.45;;;2.50;;
22687;SDS011;11511;51.514;7.080;2023-09-19T06:05:00;13.27;;;2.60;;
22687;SDS011;11511;51.514;7.080;2023-09-19T06:07:26;9.18;;;2.55;;
22687;SDS011;11511;51.514;7.080;2023-09-19T06:09:53;8.82;;;2.03;;
22687;SDS011;11511;51.514;7.080;2023-09-19T06:12:21;12.25;;;2.35;;
22687;SDS011;11511;51.514;7.080;2023-09-19T06:14:46;9.32;;;2.25;;
22687;SDS011;11511;51.514;7.080;2023-09-19T06:17:13;11.93;;;2.72;;
22687;SDS011;11511;51.514;7.080;2023-09-19T06:19:39;12.07;;;2.72;;
22687;SDS011;11511;51.514;7.080;2023-09-19T06:22:04;10.52;;;2.63;;
22687;SDS011;11511;51.514;7.080;2023-09-19T06:24:30;14.02;;;2.60;;
22687;SDS011;11511;51.514;7.080;2023-09-19T06:26:55;10.80;;;2.38;;
22687;SDS011;11511;51.514;7.080;2023-09-19T06:29:21;14.23;;;2.65;;
22687;SDS011;11511;51.514;7.080;2023-09-19T06:31:48;11.35;;;2.55;;
22687;SDS011;11511;51.514;7.080;2023-09-19T06:34:13;12.57;;;2.55;;
22687;SDS011;11511;51.514;7.080;2023-09-19T06:36:43;16.42;;;2.60;;
22687;SDS011;11511;51.514;7.080;2023-09-19T06:39:09;11.07;;;2.53;;
22687;SDS011;11511;51.514;7.080;2023-09-19T06:41:36;9.93;;;2.65;;
22687;SDS011;11511;51.514;7.080;2023-09-19T06:44:03;11.10;;;2.25;;
22687;SDS011;11511;51.514;7.080;2023-09-19T06:46:30;11.98;;;2.67;;
22687;SDS011;11511;51.514;7.080;2023-09-19T06:48:58;8.02;;;2.05;;
22687;SDS011;11511;51.514;7.080;2023-09-19T06:51:23;13.23;;;2.30;;
22687;SDS011;11511;51.514;7.080;2023-09-19T06:53:48;8.30;;;1.77;;
22687;SDS011;11511;51.514;7.080;2023-09-19T06:56:14;13.45;;;2.47;;
22687;SDS011;11511;51.514;7.080;2023-09-19T06:58:39;16.48;;;2.58;;
22687;SDS011;11511;51.514;7.080;2023-09-19T07:01:04;7.85;;;2.03;;
22687;SDS011;11511;51.514;7.080;2023-09-19T07:03:30;9.88;;;2.20;;
22687;SDS011;11511;51.514;7.080;2023-09-19T07:05:56;8.10;;;2.22;;
22687;SDS011;11511;51.514;7.080;2023-09-19T07:08:21;13.48;;;2.60;;
22687;SDS011;11511;51.514;7.080;2023-09-19T07:10:47;12.68;;;2.95;;
22687;SDS011;11511;51.514;7.080;2023-09-19T07:13:17;9.35;;;2.15;;
22687;SDS011;11511;51.514;7.080;2023-09-19T07:15:43;11.30;;;2.40;;
22687;SDS011;11511;51.514;7.080;2023-09-19T07:18:13;10.15;;;2.10;;
22687;SDS011;11511;51.514;7.080;2023-09-19T07:20:40;10.95;;;2.63;;
22687;SDS011;11511;51.514;7.080;2023-09-19T07:23:10;11.90;;;2.33;;
22687;SDS011;11511;51.514;7.080;2023-09-19T07:25:40;10.07;;;2.38;;
22687;SDS011;11511;51.514;7.080;2023-09-19T07:28:05;15.70;;;2.40;;
22687;SDS011;11511;51.514;7.080;2023-09-19T07:30:30;9.80;;;2.30;;
22687;SDS011;11511;51.514;7.080;2023-09-19T07:32:56;10.40;;;2.30;;
22687;SDS011;11511;51.514;7.080;2023-09-19T07:35:21;12.40;;;2.50;;
22687;SDS011;11511;51.514;7.080;2023-09-19T07:37:47;13.32;;;2.65;;
22687;SDS011;11511;51.514;7.080;2023-09-19T07:40:16;11.32;;;2.45;;
22687;SDS011;11511;51.514;7.080;2023-09-19T07:42:42;11.73;;;2.33;;
22687;SDS011;11511;51.514;7.080;2023-09-19T07:45:09;17.75;;;2.97;;
22687;SDS011;11511;51.514;7.080;2023-09-19T07:47:39;15.00;;;2.67;;
22687;SDS011;11511;51.514;7.080;2023-09-19T07:50:15;16.08;;;2.47;;
22687;SDS011;11511;51.514;7.080;2023-09-19T07:52:47;11.25;;;2.08;;
22687;SDS011;11511;51.514;7.080;2023-09-19T07:55:13;12.93;;;2.17;;
22687;SDS011;11511;51.514;7.080;2023-09-19T07:57:41;11.90;;;2.13;;
22687;SDS011;11511;51.514;7.080;2023-09-19T08:00:07;12.15;;;2.47;;
22687;SDS011;11511;51.514;7.080;2023-09-19T08:02:35;15.57;;;2.53;;
22687;SDS011;11511;51.514;7.080;2023-09-19T08:05:03;13.02;;;2.63;;
22687;SDS011;11511;51.514;7.080;2023-09-19T08:07:31;13.05;;;2.80;;
22687;SDS011;11511;51.514;7.080;2023-09-19T08:09:57;10.85;;;2.40;;
22687;SDS011;11511;51.514;7.080;2023-09-19T08:12:23;11.82;;;2.15;;
22687;SDS011;11511;51.514;7.080;2023-09-19T08:14:52;10.27;;;2.30;;
22687;SDS011;11511;51.514;7.080;2023-09-19T08:17:17;11.13;;;2.20;;
22687;SDS011;11511;51.514;7.080;2023-09-19T08:19:45;14.25;;;2.40;;
22687;SDS011;11511;51.514;7.080;2023-09-19T08:22:11;14.30;;;2.33;;
22687;SDS011;11511;51.514;7.080;2023-09-19T08:24:37;12.57;;;2.33;;
22687;SDS011;11511;51.514;7.080;2023-09-19T08:27:03;10.52;;;2.40;;
22687;SDS011;11511;51.514;7.080;2023-09-19T08:29:29;13.45;;;2.15;;
22687;SDS011;11511;51.514;7.080;2023-09-19T08:31:58;14.15;;;2.10;;
22687;SDS011;11511;51.514;7.080;2023-09-19T08:34:24;10.07;;;2.13;;
22687;SDS011;11511;51.514;7.080;2023-09-19T08:36:53;8.80;;;2.00;;
22687;SDS011;11511;51.514;7.080;2023-09-19T08:39:21;11.98;;;2.22;;
22687;SDS011;11511;51.514;7.080;2023-09-19T08:41:56;9.07;;;2.40;;
22687;SDS011;11511;51.514;7.080;2023-09-19T08:44:23;12.40;;;2.15;;
22687;SDS011;11511;51.514;7.080;2023-09-19T08:46:49;10.02;;;2.25;;
22687;SDS011;11511;51.514;7.080;2023-09-19T08:52:20;12.65;;;2.22;;
22687;SDS011;11511;51.514;7.080;2023-09-19T08:54:52;11.57;;;2.42;;
22687;SDS011;11511;51.514;7.080;2023-09-19T08:57:18;11.50;;;2.50;;
22687;SDS011;11511;51.514;7.080;2023-09-19T08:59:47;14.00;;;2.30;;
22687;SDS011;11511;51.514;7.080;2023-09-19T09:02:15;8.55;;;2.17;;
22687;SDS011;11511;51.514;7.080;2023-09-19T09:04:44;9.80;;;2.45;;
22687;SDS011;11511;51.514;7.080;2023-09-19T09:07:11;7.82;;;1.90;;
22687;SDS011;11511;51.514;7.080;2023-09-19T09:09:41;8.70;;;1.90;;
22687;SDS011;11511;51.514;7.080;2023-09-19T09:12:11;9.30;;;2.03;;
22687;SDS011;11511;51.514;7.080;2023-09-19T09:14:39;12.55;;;2.53;;
22687;SDS011;11511;51.514;7.080;2023-09-19T09:17:05;10.43;;;2.28;;
22687;SDS011;11511;51.514;7.080;2023-09-19T09:19:32;8.93;;;2.03;;
22687;SDS011;11511;51.514;7.080;2023-09-19T09:22:07;12.18;;;2.30;;
22687;SDS011;11511;51.514;7.080;2023-09-19T09:24:33;13.30;;;2.65;;
22687;SDS011;11511;51.514;7.080;2023-09-19T09:27:02;9.57;;;2.05;;
22687;SDS011;11511;51.514;7.080;2023-09-19T09:29:47;12.95;;;2.40;;
22687;SDS011;11511;51.514;7.080;2023-09-19T09:34:51;7.43;;;2.00;;
22687;SDS011;11511;51.514;7.080;2023-09-19T09:37:18;10.38;;;2.38;;
22687;SDS011;11511;51.514;7.080;2023-09-19T09:39:51;7.70;;;2.00;;
22687;SDS011;11511;51.514;7.080;2023-09-19T09:42:42;10.32;;;2.20;;
22687;SDS011;11511;51.514;7.080;2023-09-19T09:45:12;10.57;;;2.40;;
22687;SDS011;11511;51.514;7.080;2023-09-19T09:47:41;10.18;;;2.10;;
22687;SDS011;11511;51.514;7.080;2023-09-19T09:50:16;7.60;;;1.83;;
22687;SDS011;11511;51.514;7.080;2023-09-19T09:56:05;8.65;;;2.55;;
22687;SDS011;11511;51.514;7.080;2023-09-19T09:58:36;8.15;;;2.17;;
22687;SDS011;11511;51.514;7.080;2023-09-19T10:01:05;9.93;;;2.33;;
22687;SDS011;11511;51.514;7.080;2023-09-19T10:03:36;5.70;;;1.65;;
22687;SDS011;11511;51.514;7.080;2023-09-19T10:06:08;7.18;;;1.90;;
22687;SDS011;11511;51.514;7.080;2023-09-19T10:08:59;10.80;;;2.03;;
22687;SDS011;11511;51.514;7.080;2023-09-19T10:11:40;11.45;;;2.72;;
22687;SDS011;11511;51.514;7.080;2023-09-19T10:14:08;10.88;;;2.20;;
22687;SDS011;11511;51.514;7.080;2023-09-19T10:16:38;9.18;;;2.10;;
22687;SDS011;11511;51.514;7.080;2023-09-19T10:19:06;11.18;;;2.28;;
22687;SDS011;11511;51.514;7.080;2023-09-19T10:21:34;9.50;;;2.35;;
22687;SDS011;11511;51.514;7.080;2023-09-19T10:24:01;6.80;;;1.90;;
22687;SDS011;11511;51.514;7.080;2023-09-19T10:26:34;8.77;;;2.10;;
22687;SDS011;11511;51.514;7.080;2023-09-19T10:29:01;8.75;;;2.13;;
22687;SDS011;11511;51.514;7.080;2023-09-19T10:31:27;9.25;;;2.30;;
22687;SDS011;11511;51.514;7.080;2023-09-19T10:33:53;9.02;;;1.98;;
22687;SDS011;11511;51.514;7.080;2023-09-19T10:36:21;7.88;;;2.20;;
22687;SDS011;11511;51.514;7.080;2023-09-19T10:38:50;6.70;;;2.33;;
22687;SDS011;11511;51.514;7.080;2023-09-19T10:41:21;8.25;;;2.10;;
22687;SDS011;11511;51.514;7.080;2023-09-19T10:43:47;5.50;;;1.88;;
22687;SDS011;11511;51.514;7.080;2023-09-19T10:46:13;8.45;;;2.05;;
22687;SDS011;11511;51.514;7.080;2023-09-19T10:48:39;9.65;;;2.13;;
22687;SDS011;11511;51.514;7.080;2023-09-19T10:51:15;12.70;;;2.30;;
22687;SDS011;11511;51.514;7.080;2023-09-19T10:53:48;6.95;;;2.10;;
22687;SDS011;11511;51.514;7.080;2023-09-19T10:56:21;10.10;;;2.30;;
22687;SDS011;11511;51.514;7.080;2023-09-19T10:59:10;9.40;;;2.00;;
22687;SDS011;11511;51.514;7.080;2023-09-19T11:04:42;9.20;;;2.13;;
22687;SDS011;11511;51.514;7.080;2023-09-19T11:09:43;7.03;;;1.92;;
22687;SDS011;11511;51.514;7.080;2023-09-19T11:12:12;9.23;;;1.92;;
22687;SDS011;11511;51.514;7.080;2023-09-19T11:15:02;6.10;;;1.40;;
22687;SDS011;11511;51.514;7.080;2023-09-19T11:17:36;8.27;;;2.00;;
22687;SDS011;11511;51.514;7.080;2023-09-19T11:30:42;13.95;;;2.75;;
22687;SDS011;11511;51.514;7.080;2023-09-19T11:33:17;7.32;;;1.85;;
22687;SDS011;11511;51.514;7.080;2023-09-19T11:36:06;5.70;;;1.70;;
22687;SDS011;11511;51.514;7.080;2023-09-19T11:43:47;9.45;;;2.17;;
22687;SDS011;11511;51.514;7.080;2023-09-19T11:46:13;9.32;;;1.90;;
22687;SDS011;11511;51.514;7.080;2023-09-19T11:48:41;7.45;;;1.92;;
22687;SDS011;11511;51.514;7.080;2023-09-19T11:51:12;5.07;;;1.70;;
22687;SDS011;11511;51.514;7.080;2023-09-19T11:54:00;6.38;;;1.73;;
22687;SDS011;11511;51.514;7.080;2023-09-19T11:56:28;7.50;;;2.08;;
22687;SDS011;11511;51.514;7.080;2023-09-19T11:58:55;5.82;;;1.80;;
22687;SDS011;11511;51.514;7.080;2023-09-19T12:01:22;5.75;;;2.03;;
22687;SDS011;11511;51.514;7.080;2023-09-19T12:03:55;6.28;;;2.15;;
22687;SDS011;11511;51.514;7.080;2023-09-19T12:06:28;7.05;;;1.92;;
22687;SDS011;11511;51.514;7.080;2023-09-19T12:09:01;6.00;;;1.60;;
22687;SDS011;11511;51.514;7.080;2023-09-19T12:11:32;6.85;;;2.30;;
22687;SDS011;11511;51.514;7.080;2023-09-19T12:13:58;11.25;;;2.20;;
22687;SDS011;11511;51.514;7.080;2023-09-19T12:16:25;6.55;;;1.73;;
22687;SDS011;11511;51.514;7.080;2023-09-19T12:18:55;9.38;;;2.17;;
22687;SDS011;11511;51.514;7.080;2023-09-19T12:26:38;10.98;;;1.80;;
22687;SDS011;11511;51.514;7.080;2023-09-19T12:29:09;4.10;;;1.50;;
22687;SDS011;11511;51.514;7.080;2023-09-19T12:31:55;9.50;;;2.20;;
22687;SDS011;11511;51.514;7.080;2023-09-19T12:34:31;5.13;;;1.80;;
22687;SDS011;11511;51.514;7.080;2023-09-19T12:39:46;5.13;;;1.70;;
22687;SDS011;11511;51.514;7.080;2023-09-19T12:42:14;9.38;;;1.95;;
22687;SDS011;11511;51.514;7.080;2023-09-19T12:44:42;7.90;;;1.85;;
22687;SDS011;11511;51.514;7.080;2023-09-19T12:47:09;8.02;;;1.80;;
22687;SDS011;11511;51.514;7.080;2023-09-19T12:49:36;4.95;;;1.77;;
22687;SDS011;11511;51.514;7.080;2023-09-19T12:52:01;4.88;;;1.85;;
22687;SDS011;11511;51.514;7.080;2023-09-19T12:54:39;6.75;;;1.60;;
22687;SDS011;11511;51.514;7.080;2023-09-19T12:57:05;9.20;;;1.95;;
22687;SDS011;11511;51.514;7.080;2023-09-19T12:59:30;5.50;;;1.90;;
22687;SDS011;11511;51.514;7.080;2023-09-19T13:02:03;5.25;;;1.52;;
22687;SDS011;11511;51.514;7.080;2023-09-19T13:04:29;6.53;;;1.50;;
22687;SDS011;11511;51.514;7.080;2023-09-19T13:06:55;6.07;;;1.83;;
22687;SDS011;11511;51.514;7.080;2023-09-19T13:09:25;4.53;;;1.50;;
22687;SDS011;11511;51.514;7.080;2023-09-19T13:11:59;5.85;;;1.60;;
22687;SDS011;11511;51.514;7.080;2023-09-19T13:14:27;6.13;;;1.50;;
22687;SDS011;11511;51.514;7.080;2023-09-19T13:17:06;4.45;;;1.60;;
22687;SDS011;11511;51.514;7.080;2023-09-19T13:19:48;7.78;;;1.60;;
22687;SDS011;11511;51.514;7.080;2023-09-19T13:25:05;6.47;;;1.73;;
22687;SDS011;11511;51.514;7.080;2023-09-19T13:27:32;6.15;;;1.50;;
22687;SDS011;11511;51.514;7.080;2023-09-19T13:29:58;5.57;;;1.40;;
22687;SDS011;11511;51.514;7.080;2023-09-19T13:32:24;6.43;;;1.35;;
22687;SDS011;11511;51.514;7.080;2023-09-19T13:34:49;7.28;;;1.42;;
22687;SDS011;11511;51.514;7.080;2023-09-19T13:37:16;7.20;;;1.50;;
22687;SDS011;11511;51.514;7.080;2023-09-19T13:39:43;7.10;;;1.45;;
22687;SDS011;11511;51.514;7.080;2023-09-19T13:42:12;6.65;;;1.33;;
22687;SDS011;11511;51.514;7.080;2023-09-19T13:44:41;6.05;;;1.38;;
22687;SDS011;11511;51.514;7.080;2023-09-19T13:47:06;4.97;;;1.27;;
22687;SDS011;11511;51.514;7.080;2023-09-19T13:49:37;5.18;;;1.33;;
22687;SDS011;11511;51.514;7.080;2023-09-19T13:52:03;6.47;;;1.33;;
22687;SDS011;11511;51.514;7.080;2023-09-19T13:54:30;5.80;;;1.60;;
22687;SDS011;11511;51.514;7.080;2023-09-19T13:56:55;5.68;;;1.27;;
22687;SDS011;11511;51.514;7.080;2023-09-19T13:59:20;4.78;;;1.60;;
22687;SDS011;11511;51.514;7.080;2023-09-19T14:01:48;7.47;;;1.50;;
22687;SDS011;11511;51.514;7.080;2023-09-19T14:04:18;5.93;;;1.40;;
22687;SDS011;11511;51.514;7.080;2023-09-19T14:06:44;5.95;;;1.08;;
22687;SDS011;11511;51.514;7.080;2023-09-19T14:09:11;5.07;;;1.48;;
22687;SDS011;11511;51.514;7.080;2023-09-19T14:11:36;3.20;;;1.30;;
22687;SDS011;11511;51.514;7.080;2023-09-19T14:14:02;8.05;;;1.50;;
22687;SDS011;11511;51.514;7.080;2023-09-19T14:16:29;5.80;;;1.50;;
22687;SDS011;11511;51.514;7.080;2023-09-19T14:18:56;7.55;;;1.52;;
22687;SDS011;11511;51.514;7.080;2023-09-19T14:21:21;5.45;;;1.38;;
22687;SDS011;11511;51.514;7.080;2023-09-19T14:23:48;6.35;;;1.20;;
22687;SDS011;11511;51.514;7.080;2023-09-19T14:26:14;5.20;;;1.10;;
22687;SDS011;11511;51.514;7.080;2023-09-19T14:28:41;5.50;;;1.30;;
22687;SDS011;11511;51.514;7.080;2023-09-19T14:33:32;3.78;;;1.20;;
22687;SDS011;11511;51.514;7.080;2023-09-19T14:35:57;4.03;;;1.13;;
22687;SDS011;11511;51.514;7.080;2023-09-19T14:38:22;8.20;;;1.42;;
22687;SDS011;11511;51.514;7.080;2023-09-19T14:40:48;6.78;;;1.05;;
22687;SDS011;11511;51.514;7.080;2023-09-19T14:43:15;4.40;;;1.38;;
22687;SDS011;11511;51.514;7.080;2023-09-19T14:45:40;3.25;;;1.05;;
22687;SDS011;11511;51.514;7.080;2023-09-19T14:48:06;6.05;;;1.58;;
22687;SDS011;11511;51.514;7.080;2023-09-19T14:50:32;8.32;;;1.40;;
22687;SDS011;11511;51.514;7.080;2023-09-19T14:52:58;5.22;;;0.90;;
22687;SDS011;11511;51.514;7.080;2023-09-19T14:55:26;7.97;;;1.58;;
22687;SDS011;11511;51.514;7.080;2023-09-19T14:57:54;9.63;;;1.20;;
22687;SDS011;11511;51.514;7.080;2023-09-19T15:00:21;5.78;;;1.10;;
22687;SDS011;11511;51.514;7.080;2023-09-19T15:02:48;3.90;;;0.95;;
22687;SDS011;11511;51.514;7.080;2023-09-19T15:05:15;5.22;;;1.20;;
22687;SDS011;11511;51.514;7.080;2023-09-19T15:07:41;5.90;;;1.20;;
22687;SDS011;11511;51.514;7.080;2023-09-19T15:10:06;4.03;;;0.90;;
22687;SDS011;11511;51.514;7.080;2023-09-19T15:12:34;6.53;;;1.05;;
22687;SDS011;11511;51.514;7.080;2023-09-19T15:15:00;7.32;;;1.45;;
22687;SDS011;11511;51.514;7.080;2023-09-19T15:17:26;6.85;;;1.00;;
22687;SDS011;11511;51.514;7.080;2023-09-19T15:19:51;6.22;;;1.30;;
22687;SDS011;11511;51.514;7.080;2023-09-19T15:22:16;6.30;;;1.17;;
22687;SDS011;11511;51.514;7.080;2023-09-19T15:24:42;6.75;;;1.48;;
22687;SDS011;11511;51.514;7.080;2023-09-19T15:27:07;6.72;;;1.40;;
22687;SDS011;11511;51.514;7.080;2023-09-19T15:29:32;5.50;;;1.38;;
22687;SDS011;11511;51.514;7.080;2023-09-19T15:31:58;5.70;;;0.95;;
22687;SDS011;11511;51.514;7.080;2023-09-19T15:34:26;7.93;;;1.15;;
22687;SDS011;11511;51.514;7.080;2023-09-19T15:36:53;4.03;;;1.27;;
22687;SDS011;11511;51.514;7.080;2023-09-19T15:39:18;5.25;;;1.10;;
22687;SDS011;11511;51.514;7.080;2023-09-19T15:41:47;5.05;;;0.90;;
22687;SDS011;11511;51.514;7.080;2023-09-19T15:44:16;3.92;;;0.95;;
22687;SDS011;11511;51.514;7.080;2023-09-19T15:46:43;4.22;;;0.90;;
22687;SDS011;11511;51.514;7.080;2023-09-19T15:49:09;5.40;;;1.23;;